sensor_id;sensor_type;location;lat;lon;timestamp;temperature;humidity
8736;DHT22;4404;49.308;12.178;2023-09-12T05:47:10;16.90;99.90
8736;DHT22;4404;49.308;12.178;2023-09-12T05:49:17;17.70;99.90
8736;DHT22;4404;49.308;12.178;2023-09-12T05:51:20;17.80;99.90
8736;DHT22;4404;49.308;12.178;2023-09-12T05:53:23;17.90;99.90
8736;DHT22;4404;49.308;12.178;2023-09-12T05:55:25;17.90;99.90
8736;DHT22;4404;49.308;12.178;2023-09-12T05:57:28;18.00;99.90
8736;DHT22;4404;49.308;12.178;2023-09-12T05:59:36;18.00;99.90
8736;DHT22;4404;49.308;12.178;2023-09-12T06:01:40;18.00;99.90
8736;DHT22;4404;49.308;12.178;2023-09-12T06:03:44;18.00;99.90
8736;DHT22;4404;49.308;12.178;2023-09-12T06:05:46;18.00;99.90
8736;DHT22;4404;49.308;12.178;2023-09-12T06:07:49;18.00;99.90
8736;DHT22;4404;49.308;12.178;2023-09-12T06:09:50;18.00;99.90
8736;DHT22;4404;49.308;12.178;2023-09-12T06:11:53;18.00;99.90
8736;DHT22;4404;49.308;12.178;2023-09-12T06:13:56;18.00;99.90
8736;DHT22;4404;49.308;12.178;2023-09-12T06:15:59;18.00;99.90
8736;DHT22;4404;49.308;12.178;2023-09-12T06:18:01;18.20;99.90
8736;DHT22;4404;49.308;12.178;2023-09-12T06:20:06;18.30;99.90
8736;DHT22;4404;49.308;12.178;2023-09-12T06:22:09;18.40;99.90
8736;DHT22;4404;49.308;12.178;2023-09-12T06:24:12;18.40;99.90
8736;DHT22;4404;49.308;12.178;2023-09-12T06:26:15;18.40;99.90
8736;DHT22;4404;49.308;12.178;2023-09-12T06:28:25;18.40;99.90
8736;DHT22;4404;49.308;12.178;2023-09-12T06:30:28;18.40;99.90
8736;DHT22;4404;49.308;12.178;2023-09-12T06:32:30;18.40;99.90
8736;DHT22;4404;49.308;12.178;2023-09-12T06:34:32;18.40;99.90
8736;DHT22;4404;49.308;12.178;2023-09-12T06:36:36;18.50;99.90
8736;DHT22;4404;49.308;12.178;2023-09-12T06:38:42;18.50;99.90
8736;DHT22;4404;49.308;12.178;2023-09-12T06:40:44;18.50;99.90
8736;DHT22;4404;49.308;12.178;2023-09-12T06:42:47;18.50;99.90
8736;DHT22;4404;49.308;12.178;2023-09-12T06:44:50;18.60;99.90
8736;DHT22;4404;49.308;12.178;2023-09-12T06:46:52;18.60;99.90
8736;DHT22;4404;49.308;12.178;2023-09-12T06:48:54;18.80;99.90
8736;DHT22;4404;49.308;12.178;2023-09-12T06:50:57;18.80;99.90
8736;DHT22;4404;49.308;12.178;2023-09-12T06:53:00;18.90;99.90
8736;DHT22;4404;49.308;12.178;2023-09-12T06:55:05;18.80;99.90
8736;DHT22;4404;49.308;12.178;2023-09-12T06:57:08;18.90;99.90
8736;DHT22;4404;49.308;12.178;2023-09-12T06:59:11;18.90;99.90
8736;DHT22;4404;49.308;12.178;2023-09-12T07:01:13;18.80;99.90
8736;DHT22;4404;49.308;12.178;2023-09-12T07:03:16;18.80;99.90
8736;DHT22;4404;49.308;12.178;2023-09-12T07:05:18;18.80;99.90
8736;DHT22;4404;49.308;12.178;2023-09-12T07:07:21;18.90;99.90
8736;DHT22;4404;49.308;12.178;2023-09-12T07:09:25;19.00;99.90
8736;DHT22;4404;49.308;12.178;2023-09-12T07:11:27;19.00;99.90
8736;DHT22;4404;49.308;12.178;2023-09-12T07:13:30;19.10;99.90
8736;DHT22;4404;49.308;12.178;2023-09-12T07:15:35;19.30;99.90
8736;DHT22;4404;49.308;12.178;2023-09-12T07:17:38;19.50;99.90
8736;DHT22;4404;49.308;12.178;2023-09-12T07:19:40;19.60;99.90
8736;DHT22;4404;49.308;12.178;2023-09-12T07:21:42;19.70;99.90
8736;DHT22;4404;49.308;12.178;2023-09-12T07:23:45;19.80;99.90
8736;DHT22;4404;49.308;12.178;2023-09-12T07:25:50;19.80;99.90
8736;DHT22;4404;49.308;12.178;2023-09-12T07:27:53;19.90;99.90
8736;DHT22;4404;49.308;12.178;2023-09-12T07:29:55;20.00;99.90
8736;DHT22;4404;49.308;12.178;2023-09-12T07:31:58;20.10;99.90
8736;DHT22;4404;49.308;12.178;2023-09-12T07:34:00;20.00;99.90
8736;DHT22;4404;49.308;12.178;2023-09-12T07:36:02;20.20;99.90
8736;DHT22;4404;49.308;12.178;2023-09-12T07:38:05;20.20;99.90
8736;DHT22;4404;49.308;12.178;2023-09-12T07:40:08;20.30;99.90
8736;DHT22;4404;49.308;12.178;2023-09-12T07:42:13;20.50;99.90
8736;DHT22;4404;49.308;12.178;2023-09-12T07:44:15;20.50;99.90
8736;DHT22;4404;49.308;12.178;2023-09-12T07:46:18;20.50;99.90
8736;DHT22;4404;49.308;12.178;2023-09-12T07:48:20;20.60;99.90
8736;DHT22;4404;49.308;12.178;2023-09-12T07:50:22;20.70;99.90
8736;DHT22;4404;49.308;12.178;2023-09-12T07:52:24;20.80;99.90
8736;DHT22;4404;49.308;12.178;2023-09-12T07:54:27;20.80;99.90
8736;DHT22;4404;49.308;12.178;2023-09-12T07:56:31;20.80;99.90
8736;DHT22;4404;49.308;12.178;2023-09-12T07:58:35;20.90;99.90
8736;DHT22;4404;49.308;12.178;2023-09-12T08:00:37;21.00;99.90
8736;DHT22;4404;49.308;12.178;2023-09-12T08:02:40;21.00;99.90
8736;DHT22;4404;49.308;12.178;2023-09-12T08:04:42;21.10;99.90
8736;DHT22;4404;49.308;12.178;2023-09-12T08:06:45;21.20;99.90
8736;DHT22;4404;49.308;12.178;2023-09-12T08:08:46;21.40;99.90
8736;DHT22;4404;49.308;12.178;2023-09-12T08:10:49;21.50;99.90
8736;DHT22;4404;49.308;12.178;2023-09-12T08:12:52;21.60;99.90
8736;DHT22;4404;49.308;12.178;2023-09-12T08:14:57;21.50;99.90
8736;DHT22;4404;49.308;12.178;2023-09-12T08:17:00;21.70;99.90
8736;DHT22;4404;49.308;12.178;2023-09-12T08:19:03;21.90;99.90
8736;DHT22;4404;49.308;12.178;2023-09-12T08:21:06;22.00;99.90
8736;DHT22;4404;49.308;12.178;2023-09-12T08:23:08;22.20;99.90
8736;DHT22;4404;49.308;12.178;2023-09-12T08:25:11;22.30;99.90
8736;DHT22;4404;49.308;12.178;2023-09-12T08:27:15;22.50;99.90
8736;DHT22;4404;49.308;12.178;2023-09-12T08:29:17;22.60;99.90
8736;DHT22;4404;49.308;12.178;2023-09-12T08:31:21;22.70;99.90
8736;DHT22;4404;49.308;12.178;2023-09-12T08:33:23;22.80;99.90
8736;DHT22;4404;49.308;12.178;2023-09-12T08:35:26;22.90;99.90
8736;DHT22;4404;49.308;12.178;2023-09-12T08:37:28;23.20;99.90
8736;DHT22;4404;49.308;12.178;2023-09-12T08:39:41;23.50;99.90
8736;DHT22;4404;49.308;12.178;2023-09-12T08:41:46;23.80;99.90
8736;DHT22;4404;49.308;12.178;2023-09-12T08:43:49;24.00;99.90
8736;DHT22;4404;49.308;12.178;2023-09-12T08:45:51;24.00;99.90
8736;DHT22;4404;49.308;12.178;2023-09-12T08:47:58;24.20;99.90
8736;DHT22;4404;49.308;12.178;2023-09-12T08:50:05;24.50;99.90
8736;DHT22;4404;49.308;12.178;2023-09-12T08:52:08;24.80;99.90
8736;DHT22;4404;49.308;12.178;2023-09-12T08:54:11;24.80;99.90
8736;DHT22;4404;49.308;12.178;2023-09-12T08:56:12;25.00;99.90
8736;DHT22;4404;49.308;12.178;2023-09-12T08:58:15;25.20;99.90
8736;DHT22;4404;49.308;12.178;2023-09-12T09:00:18;25.40;99.90
8736;DHT22;4404;49.308;12.178;2023-09-12T09:02:22;25.60;99.90
8736;DHT22;4404;49.308;12.178;2023-09-12T09:04:27;25.70;99.90
8736;DHT22;4404;49.308;12.178;2023-09-12T09:06:32;25.80;99.90
8736;DHT22;4404;49.308;12.178;2023-09-12T09:08:38;25.70;99.90
8736;DHT22;4404;49.308;12.178;2023-09-12T09:10:54;25.80;99.90
8736;DHT22;4404;49.308;12.178;2023-09-12T09:12:57;26.00;99.90
8736;DHT22;4404;49.308;12.178;2023-09-12T09:15:19;26.20;99.90
8736;DHT22;4404;49.308;12.178;2023-09-12T09:17:23;26.50;99.90
8736;DHT22;4404;49.308;12.178;2023-09-12T09:19:44;26.70;99.90
8736;DHT22;4404;49.308;12.178;2023-09-12T09:21:48;26.70;99.90
8736;DHT22;4404;49.308;12.178;2023-09-12T09:23:51;26.70;99.90
8736;DHT22;4404;49.308;12.178;2023-09-12T09:25:54;26.80;99.90
8736;DHT22;4404;49.308;12.178;2023-09-12T09:27:57;26.70;99.90
8736;DHT22;4404;49.308;12.178;2023-09-12T09:30:00;26.80;99.90
8736;DHT22;4404;49.308;12.178;2023-09-12T09:32:02;26.90;99.90
8736;DHT22;4404;49.308;12.178;2023-09-12T09:34:11;27.00;99.90
8736;DHT22;4404;49.308;12.178;2023-09-12T09:36:15;27.30;99.90
8736;DHT22;4404;49.308;12.178;2023-09-12T09:38:19;27.60;99.90
8736;DHT22;4404;49.308;12.178;2023-09-12T09:40:23;27.70;99.90
8736;DHT22;4404;49.308;12.178;2023-09-12T09:42:29;27.80;99.90
8736;DHT22;4404;49.308;12.178;2023-09-12T09:44:32;28.00;99.90
8736;DHT22;4404;49.308;12.178;2023-09-12T09:46:35;28.10;99.90
8736;DHT22;4404;49.308;12.178;2023-09-12T09:48:48;28.20;99.90
8736;DHT22;4404;49.308;12.178;2023-09-12T09:50:52;28.50;99.90
8736;DHT22;4404;49.308;12.178;2023-09-12T09:52:57;28.60;99.90
8736;DHT22;4404;49.308;12.178;2023-09-12T09:54:59;28.60;99.90
8736;DHT22;4404;49.308;12.178;2023-09-12T09:57:04;28.70;99.90
8736;DHT22;4404;49.308;12.178;2023-09-12T09:59:07;28.80;99.90
8736;DHT22;4404;49.308;12.178;2023-09-12T10:01:09;28.80;99.90
8736;DHT22;4404;49.308;12.178;2023-09-12T10:03:13;28.70;99.90
8736;DHT22;4404;49.308;12.178;2023-09-12T10:05:17;28.50;99.90
8736;DHT22;4404;49.308;12.178;2023-09-12T10:07:21;28.60;99.90
8736;DHT22;4404;49.308;12.178;2023-09-12T10:09:26;28.80;99.90
8736;DHT22;4404;49.308;12.178;2023-09-12T10:11:32;28.70;99.90
8736;DHT22;4404;49.308;12.178;2023-09-12T10:13:36;28.80;99.90
8736;DHT22;4404;49.308;12.178;2023-09-12T10:15:45;28.90;99.90
8736;DHT22;4404;49.308;12.178;2023-09-12T10:17:57;29.00;99.90
8736;DHT22;4404;49.308;12.178;2023-09-12T10:20:04;29.10;99.90
8736;DHT22;4404;49.308;12.178;2023-09-12T10:22:20;29.40;99.90
8736;DHT22;4404;49.308;12.178;2023-09-12T10:24:26;29.40;99.90
8736;DHT22;4404;49.308;12.178;2023-09-12T10:26:31;29.40;99.90
8736;DHT22;4404;49.308;12.178;2023-09-12T10:28:34;29.60;99.90
8736;DHT22;4404;49.308;12.178;2023-09-12T10:30:36;29.70;99.90
8736;DHT22;4404;49.308;12.178;2023-09-12T10:32:46;29.80;99.90
8736;DHT22;4404;49.308;12.178;2023-09-12T10:34:51;29.80;99.90
8736;DHT22;4404;49.308;12.178;2023-09-12T10:36:55;29.80;99.90
8736;DHT22;4404;49.308;12.178;2023-09-12T10:39:06;29.80;99.90
8736;DHT22;4404;49.308;12.178;2023-09-12T10:41:12;29.80;99.90
8736;DHT22;4404;49.308;12.178;2023-09-12T10:43:15;29.60;99.90
8736;DHT22;4404;49.308;12.178;2023-09-12T10:45:19;29.60;99.90
8736;DHT22;4404;49.308;12.178;2023-09-12T10:47:23;29.70;99.90
8736;DHT22;4404;49.308;12.178;2023-09-12T10:49:25;29.70;99.90
8736;DHT22;4404;49.308;12.178;2023-09-12T10:51:37;29.70;99.90
8736;DHT22;4404;49.308;12.178;2023-09-12T10:53:45;29.80;99.90
8736;DHT22;4404;49.308;12.178;2023-09-12T10:56:14;29.90;99.90
8736;DHT22;4404;49.308;12.178;2023-09-12T10:59:08;29.80;99.90
8736;DHT22;4404;49.308;12.178;2023-09-12T11:01:24;29.70;99.90
8736;DHT22;4404;49.308;12.178;2023-09-12T11:03:45;29.70;99.90
8736;DHT22;4404;49.308;12.178;2023-09-12T11:05:52;29.40;99.90
8736;DHT22;4404;49.308;12.178;2023-09-12T11:07:57;29.40;99.90
8736;DHT22;4404;49.308;12.178;2023-09-12T11:10:19;29.30;99.90
8736;DHT22;4404;49.308;12.178;2023-09-12T11:12:35;29.30;99.90
8736;DHT22;4404;49.308;12.178;2023-09-12T11:15:05;29.30;99.90
8736;DHT22;4404;49.308;12.178;2023-09-12T11:17:23;29.50;99.90
8736;DHT22;4404;49.308;12.178;2023-09-12T11:19:26;29.40;99.90
8736;DHT22;4404;49.308;12.178;2023-09-12T11:21:33;29.30;99.90
8736;DHT22;4404;49.308;12.178;2023-09-12T11:23:35;29.20;99.90
8736;DHT22;4404;49.308;12.178;2023-09-12T11:25:40;29.30;99.90
8736;DHT22;4404;49.308;12.178;2023-09-12T11:28:02;29.50;99.90
8736;DHT22;4404;49.308;12.178;2023-09-12T11:30:06;29.70;99.90
8736;DHT22;4404;49.308;12.178;2023-09-12T11:32:09;29.70;99.90
8736;DHT22;4404;49.308;12.178;2023-09-12T11:34:11;29.80;99.90
8736;DHT22;4404;49.308;12.178;2023-09-12T11:36:14;29.90;99.90
8736;DHT22;4404;49.308;12.178;2023-09-12T11:38:26;30.00;99.90
8736;DHT22;4404;49.308;12.178;2023-09-12T11:40:43;29.80;99.90
8736;DHT22;4404;49.308;12.178;2023-09-12T11:42:48;29.80;99.90
8736;DHT22;4404;49.308;12.178;2023-09-12T11:44:52;29.70;99.90
8736;DHT22;4404;49.308;12.178;2023-09-12T11:46:55;29.80;99.90
8736;DHT22;4404;49.308;12.178;2023-09-12T11:49:03;29.90;99.90
8736;DHT22;4404;49.308;12.178;2023-09-12T11:51:07;29.90;99.90
8736;DHT22;4404;49.308;12.178;2023-09-12T11:53:11;30.00;99.90
8736;DHT22;4404;49.308;12.178;2023-09-12T11:55:22;30.10;99.90
8736;DHT22;4404;49.308;12.178;2023-09-12T11:57:27;30.30;99.90
8736;DHT22;4404;49.308;12.178;2023-09-12T11:59:31;30.30;99.90
8736;DHT22;4404;49.308;12.178;2023-09-12T12:01:33;30.30;99.90
8736;DHT22;4404;49.308;12.178;2023-09-12T12:03:36;30.20;99.90
8736;DHT22;4404;49.308;12.178;2023-09-12T12:05:39;30.20;99.90
8736;DHT22;4404;49.308;12.178;2023-09-12T12:07:42;30.10;99.90
8736;DHT22;4404;49.308;12.178;2023-09-12T12:09:47;30.20;99.90
8736;DHT22;4404;49.308;12.178;2023-09-12T12:11:50;30.20;99.90
8736;DHT22;4404;49.308;12.178;2023-09-12T12:13:52;30.20;99.90
8736;DHT22;4404;49.308;12.178;2023-09-12T12:15:56;30.20;99.90
8736;DHT22;4404;49.308;12.178;2023-09-12T12:17:57;30.20;99.90
8736;DHT22;4404;49.308;12.178;2023-09-12T12:19:59;30.30;99.90
8736;DHT22;4404;49.308;12.178;2023-09-12T12:22:01;30.30;99.90
8736;DHT22;4404;49.308;12.178;2023-09-12T12:24:10;30.30;99.90
8736;DHT22;4404;49.308;12.178;2023-09-12T12:26:14;30.20;99.90
8736;DHT22;4404;49.308;12.178;2023-09-12T12:28:16;30.10;99.90
8736;DHT22;4404;49.308;12.178;2023-09-12T12:30:19;30.10;99.90
8736;DHT22;4404;49.308;12.178;2023-09-12T12:32:23;30.10;99.90
8736;DHT22;4404;49.308;12.178;2023-09-12T12:34:26;30.20;99.90
8736;DHT22;4404;49.308;12.178;2023-09-12T12:36:29;30.10;99.90
8736;DHT22;4404;49.308;12.178;2023-09-12T12:38:33;30.10;99.90
8736;DHT22;4404;49.308;12.178;2023-09-12T12:40:37;30.20;99.90
8736;DHT22;4404;49.308;12.178;2023-09-12T12:42:41;30.10;99.90
8736;DHT22;4404;49.308;12.178;2023-09-12T12:44:52;30.10;99.90
8736;DHT22;4404;49.308;12.178;2023-09-12T12:46:56;30.20;99.90
8736;DHT22;4404;49.308;12.178;2023-09-12T12:48:59;30.40;99.90
8736;DHT22;4404;49.308;12.178;2023-09-12T12:51:13;30.40;99.90
8736;DHT22;4404;49.308;12.178;2023-09-12T12:53:17;30.40;99.90
8736;DHT22;4404;49.308;12.178;2023-09-12T12:55:21;30.20;99.90
8736;DHT22;4404;49.308;12.178;2023-09-12T12:57:23;30.20;99.90
8736;DHT22;4404;49.308;12.178;2023-09-12T12:59:25;30.30;99.90
8736;DHT22;4404;49.308;12.178;2023-09-12T13:01:28;30.30;99.90
8736;DHT22;4404;49.308;12.178;2023-09-12T13:03:31;30.40;99.90
8736;DHT22;4404;49.308;12.178;2023-09-12T13:05:35;30.40;99.90
8736;DHT22;4404;49.308;12.178;2023-09-12T13:07:38;30.50;99.90
8736;DHT22;4404;49.308;12.178;2023-09-12T13:09:40;30.60;99.90
8736;DHT22;4404;49.308;12.178;2023-09-12T13:11:43;30.70;99.90
8736;DHT22;4404;49.308;12.178;2023-09-12T13:13:47;30.80;99.80
8736;DHT22;4404;49.308;12.178;2023-09-12T13:15:50;30.60;99.90
8736;DHT22;4404;49.308;12.178;2023-09-12T13:17:52;30.60;99.90
8736;DHT22;4404;49.308;12.178;2023-09-12T13:19:54;30.60;99.90
8736;DHT22;4404;49.308;12.178;2023-09-12T13:21:58;30.80;99.90
8736;DHT22;4404;49.308;12.178;2023-09-12T13:24:00;30.90;99.90
8736;DHT22;4404;49.308;12.178;2023-09-12T13:26:02;30.90;99.60
8736;DHT22;4404;49.308;12.178;2023-09-12T13:28:05;30.70;99.90
8736;DHT22;4404;49.308;12.178;2023-09-12T13:30:09;30.60;99.90
8736;DHT22;4404;49.308;12.178;2023-09-12T13:32:12;30.50;99.90
8736;DHT22;4404;49.308;12.178;2023-09-12T13:34:16;30.40;99.90
8736;DHT22;4404;49.308;12.178;2023-09-12T13:36:18;30.40;99.90
8736;DHT22;4404;49.308;12.178;2023-09-12T13:38:22;30.40;99.90
8736;DHT22;4404;49.308;12.178;2023-09-12T13:40:25;30.50;99.70
8736;DHT22;4404;49.308;12.178;2023-09-12T13:42:28;30.50;99.70
8736;DHT22;4404;49.308;12.178;2023-09-12T13:44:31;30.60;99.30
8736;DHT22;4404;49.308;12.178;2023-09-12T13:46:34;30.50;99.60
8736;DHT22;4404;49.308;12.178;2023-09-12T13:48:38;30.60;99.20
8736;DHT22;4404;49.308;12.178;2023-09-12T13:50:41;30.60;99.40
8736;DHT22;4404;49.308;12.178;2023-09-12T13:52:44;30.50;99.90
8736;DHT22;4404;49.308;12.178;2023-09-12T13:54:48;30.50;99.80
8736;DHT22;4404;49.308;12.178;2023-09-12T13:56:50;30.40;99.70
8736;DHT22;4404;49.308;12.178;2023-09-12T13:58:53;30.30;99.60
8736;DHT22;4404;49.308;12.178;2023-09-12T14:00:56;30.10;99.40
8736;DHT22;4404;49.308;12.178;2023-09-12T14:02:58;30.10;99.90
8736;DHT22;4404;49.308;12.178;2023-09-12T14:05:00;29.90;99.90
8736;DHT22;4404;49.308;12.178;2023-09-12T14:07:03;29.80;99.90
8736;DHT22;4404;49.308;12.178;2023-09-12T14:09:04;29.90;99.90
8736;DHT22;4404;49.308;12.178;2023-09-12T14:11:08;30.00;99.90
8736;DHT22;4404;49.308;12.178;2023-09-12T14:13:11;30.10;99.90
8736;DHT22;4404;49.308;12.178;2023-09-12T14:15:12;30.20;99.90
8736;DHT22;4404;49.308;12.178;2023-09-12T14:17:16;30.20;99.90
8736;DHT22;4404;49.308;12.178;2023-09-12T14:19:18;30.40;99.90
8736;DHT22;4404;49.308;12.178;2023-09-12T14:21:20;30.40;99.50
8736;DHT22;4404;49.308;12.178;2023-09-12T14:23:23;30.40;99.90
8736;DHT22;4404;49.308;12.178;2023-09-12T14:25:25;30.30;99.90
8736;DHT22;4404;49.308;12.178;2023-09-12T14:27:29;30.30;99.20
8736;DHT22;4404;49.308;12.178;2023-09-12T14:29:30;30.30;99.70
8736;DHT22;4404;49.308;12.178;2023-09-12T14:31:32;30.20;99.80
8736;DHT22;4404;49.308;12.178;2023-09-12T14:33:36;30.20;99.90
8736;DHT22;4404;49.308;12.178;2023-09-12T14:35:40;30.20;99.90
8736;DHT22;4404;49.308;12.178;2023-09-12T14:37:42;30.30;99.90
8736;DHT22;4404;49.308;12.178;2023-09-12T14:39:45;30.40;99.60
8736;DHT22;4404;49.308;12.178;2023-09-12T14:41:47;30.40;99.90
8736;DHT22;4404;49.308;12.178;2023-09-12T14:43:53;30.40;99.90
8736;DHT22;4404;49.308;12.178;2023-09-12T14:45:56;30.50;98.90
8736;DHT22;4404;49.308;12.178;2023-09-12T14:47:58;30.40;98.50
8736;DHT22;4404;49.308;12.178;2023-09-12T14:50:01;30.40;98.70
8736;DHT22;4404;49.308;12.178;2023-09-12T14:52:03;30.40;98.60
8736;DHT22;4404;49.308;12.178;2023-09-12T14:54:06;30.40;98.60
8736;DHT22;4404;49.308;12.178;2023-09-12T14:56:09;30.30;98.70
8736;DHT22;4404;49.308;12.178;2023-09-12T14:58:11;30.40;98.20
8736;DHT22;4404;49.308;12.178;2023-09-12T15:00:15;30.40;98.00
8736;DHT22;4404;49.308;12.178;2023-09-12T15:02:17;30.40;98.90
8736;DHT22;4404;49.308;12.178;2023-09-12T15:04:20;30.40;98.10
8736;DHT22;4404;49.308;12.178;2023-09-12T15:06:23;30.40;98.30
8736;DHT22;4404;49.308;12.178;2023-09-12T15:08:26;30.30;98.10
8736;DHT22;4404;49.308;12.178;2023-09-12T15:10:28;30.10;97.80
8736;DHT22;4404;49.308;12.178;2023-09-12T15:12:31;30.00;98.20
8736;DHT22;4404;49.308;12.178;2023-09-12T15:14:34;30.00;98.20
8736;DHT22;4404;49.308;12.178;2023-09-12T15:16:38;30.10;98.10
8736;DHT22;4404;49.308;12.178;2023-09-12T15:18:40;30.20;98.60
8736;DHT22;4404;49.308;12.178;2023-09-12T15:20:42;30.20;98.50
8736;DHT22;4404;49.308;12.178;2023-09-12T15:22:45;30.30;98.10
8736;DHT22;4404;49.308;12.178;2023-09-12T15:24:47;30.40;97.70
8736;DHT22;4404;49.308;12.178;2023-09-12T15:26:49;30.40;97.40
8736;DHT22;4404;49.308;12.178;2023-09-12T15:28:52;30.60;97.60
8736;DHT22;4404;49.308;12.178;2023-09-12T15:30:54;30.60;98.00
8736;DHT22;4404;49.308;12.178;2023-09-12T15:32:58;30.70;97.10
8736;DHT22;4404;49.308;12.178;2023-09-12T15:35:01;30.70;97.20
8736;DHT22;4404;49.308;12.178;2023-09-12T15:37:07;30.70;97.50
8736;DHT22;4404;49.308;12.178;2023-09-12T15:39:11;30.60;97.40
8736;DHT22;4404;49.308;12.178;2023-09-12T15:41:14;30.60;98.40
8736;DHT22;4404;49.308;12.178;2023-09-12T15:43:16;30.50;99.20
8736;DHT22;4404;49.308;12.178;2023-09-12T15:45:18;30.50;98.70
8736;DHT22;4404;49.308;12.178;2023-09-12T15:47:20;30.40;99.90
8736;DHT22;4404;49.308;12.178;2023-09-12T15:49:24;30.30;99.90
8736;DHT22;4404;49.308;12.178;2023-09-12T15:51:27;30.30;99.90
8736;DHT22;4404;49.308;12.178;2023-09-12T15:53:29;30.30;99.10
8736;DHT22;4404;49.308;12.178;2023-09-12T15:55:31;30.40;98.10
8736;DHT22;4404;49.308;12.178;2023-09-12T15:57:34;30.30;97.50
8736;DHT22;4404;49.308;12.178;2023-09-12T15:59:37;30.20;97.30
8736;DHT22;4404;49.308;12.178;2023-09-12T16:01:40;30.10;97.40
8736;DHT22;4404;49.308;12.178;2023-09-12T16:03:42;30.10;97.70
8736;DHT22;4404;49.308;12.178;2023-09-12T16:05:50;30.10;97.50
8736;DHT22;4404;49.308;12.178;2023-09-12T16:07:53;30.10;97.80
8736;DHT22;4404;49.308;12.178;2023-09-12T16:09:55;30.10;97.80
8736;DHT22;4404;49.308;12.178;2023-09-12T16:11:58;29.90;99.90
8736;DHT22;4404;49.308;12.178;2023-09-12T16:14:02;29.70;99.90
8736;DHT22;4404;49.308;12.178;2023-09-12T16:16:06;29.60;99.90
8736;DHT22;4404;49.308;12.178;2023-09-12T16:18:11;29.50;99.90
8736;DHT22;4404;49.308;12.178;2023-09-12T16:20:14;29.40;99.90
8736;DHT22;4404;49.308;12.178;2023-09-12T16:22:19;29.30;99.90
8736;DHT22;4404;49.308;12.178;2023-09-12T16:24:22;29.10;99.90
8736;DHT22;4404;49.308;12.178;2023-09-12T16:26:24;28.90;99.90
8736;DHT22;4404;49.308;12.178;2023-09-12T16:28:27;28.80;99.90
8736;DHT22;4404;49.308;12.178;2023-09-12T16:30:29;28.70;99.90
8736;DHT22;4404;49.308;12.178;2023-09-12T16:32:31;28.70;99.90
8736;DHT22;4404;49.308;12.178;2023-09-12T16:34:34;28.60;99.90
8736;DHT22;4404;49.308;12.178;2023-09-12T16:36:36;28.40;99.90
8736;DHT22;4404;49.308;12.178;2023-09-12T16:38:40;28.30;99.90
8736;DHT22;4404;49.308;12.178;2023-09-12T16:40:46;28.20;99.90
8736;DHT22;4404;49.308;12.178;2023-09-12T16:42:50;28.00;99.90
8736;DHT22;4404;49.308;12.178;2023-09-12T16:44:51;27.90;99.90
8736;DHT22;4404;49.308;12.178;2023-09-12T16:46:54;27.80;99.90
8736;DHT22;4404;49.308;12.178;2023-09-12T16:48:56;27.60;99.90
8736;DHT22;4404;49.308;12.178;2023-09-12T16:50:58;27.60;99.90
8736;DHT22;4404;49.308;12.178;2023-09-12T16:53:01;27.40;99.90
8736;DHT22;4404;49.308;12.178;2023-09-12T16:55:07;27.30;99.90
8736;DHT22;4404;49.308;12.178;2023-09-12T16:57:11;27.20;99.90
8736;DHT22;4404;49.308;12.178;2023-09-12T16:59:14;27.10;99.90
8736;DHT22;4404;49.308;12.178;2023-09-12T17:01:17;27.00;99.90
8736;DHT22;4404;49.308;12.178;2023-09-12T17:03:20;26.90;99.90
8736;DHT22;4404;49.308;12.178;2023-09-12T17:05:22;26.80;99.90
8736;DHT22;4404;49.308;12.178;2023-09-12T17:07:26;26.80;99.90
8736;DHT22;4404;49.308;12.178;2023-09-12T17:09:29;26.70;99.90
8736;DHT22;4404;49.308;12.178;2023-09-12T17:11:33;26.60;99.90
8736;DHT22;4404;49.308;12.178;2023-09-12T17:13:35;26.50;99.90
8736;DHT22;4404;49.308;12.178;2023-09-12T17:15:37;26.50;99.90
8736;DHT22;4404;49.308;12.178;2023-09-12T17:17:40;26.40;99.90
8736;DHT22;4404;49.308;12.178;2023-09-12T17:19:44;26.30;99.90
8736;DHT22;4404;49.308;12.178;2023-09-12T17:21:48;26.30;99.90
8736;DHT22;4404;49.308;12.178;2023-09-12T17:23:54;26.20;99.90
8736;DHT22;4404;49.308;12.178;2023-09-12T17:26:19;26.10;99.90
8736;DHT22;4404;49.308;12.178;2023-09-12T17:29:03;26.10;99.90
8736;DHT22;4404;49.308;12.178;2023-09-12T17:31:06;26.00;99.90
8736;DHT22;4404;49.308;12.178;2023-09-12T17:33:09;25.80;99.90
8736;DHT22;4404;49.308;12.178;2023-09-12T17:35:11;25.70;99.90
8736;DHT22;4404;49.308;12.178;2023-09-12T17:37:14;25.70;99.90
8736;DHT22;4404;49.308;12.178;2023-09-12T17:39:16;25.60;99.90
8736;DHT22;4404;49.308;12.178;2023-09-12T17:41:19;25.60;99.90
8736;DHT22;4404;49.308;12.178;2023-09-12T17:43:21;25.50;99.90
8736;DHT22;4404;49.308;12.178;2023-09-12T17:45:25;25.50;99.90
8736;DHT22;4404;49.308;12.178;2023-09-12T17:47:32;25.40;99.90
8736;DHT22;4404;49.308;12.178;2023-09-12T17:49:36;25.30;99.90
8736;DHT22;4404;49.308;12.178;2023-09-12T17:51:37;25.30;99.90
8736;DHT22;4404;49.308;12.178;2023-09-12T17:53:39;25.20;99.90
8736;DHT22;4404;49.308;12.178;2023-09-12T17:55:43;25.20;99.90
8736;DHT22;4404;49.308;12.178;2023-09-12T17:57:46;25.10;99.90
8736;DHT22;4404;49.308;12.178;2023-09-12T17:59:48;25.10;99.90
8736;DHT22;4404;49.308;12.178;2023-09-12T18:01:53;25.00;99.90
8736;DHT22;4404;49.308;12.178;2023-09-12T18:03:55;25.00;99.90
8736;DHT22;4404;49.308;12.178;2023-09-12T18:05:58;24.90;99.90
8736;DHT22;4404;49.308;12.178;2023-09-12T18:08:00;24.90;99.90
8736;DHT22;4404;49.308;12.178;2023-09-12T18:10:04;24.80;99.90
8736;DHT22;4404;49.308;12.178;2023-09-12T18:12:07;24.90;99.90
8736;DHT22;4404;49.308;12.178;2023-09-12T18:14:09;24.80;99.90
8736;DHT22;4404;49.308;12.178;2023-09-12T18:16:12;24.70;99.90
8736;DHT22;4404;49.308;12.178;2023-09-12T18:18:18;24.70;99.90
8736;DHT22;4404;49.308;12.178;2023-09-12T18:20:21;24.70;99.90
8736;DHT22;4404;49.308;12.178;2023-09-12T18:22:23;24.60;99.90
8736;DHT22;4404;49.308;12.178;2023-09-12T18:24:25;24.50;99.90
8736;DHT22;4404;49.308;12.178;2023-09-12T18:26:28;24.50;99.90
8736;DHT22;4404;49.308;12.178;2023-09-12T18:28:39;24.50;99.90
8736;DHT22;4404;49.308;12.178;2023-09-12T18:30:42;24.50;99.90
8736;DHT22;4404;49.308;12.178;2023-09-12T18:32:44;24.40;99.90
8736;DHT22;4404;49.308;12.178;2023-09-12T18:34:48;24.40;99.90
8736;DHT22;4404;49.308;12.178;2023-09-12T18:36:51;24.40;99.90
8736;DHT22;4404;49.308;12.178;2023-09-12T18:38:55;24.40;99.90
8736;DHT22;4404;49.308;12.178;2023-09-12T18:40:59;24.30;99.90
8736;DHT22;4404;49.308;12.178;2023-09-12T18:43:02;24.30;99.90
8736;DHT22;4404;49.308;12.178;2023-09-12T18:45:07;24.20;99.90
8736;DHT22;4404;49.308;12.178;2023-09-12T18:47:12;24.20;99.90
8736;DHT22;4404;49.308;12.178;2023-09-12T18:49:15;24.20;99.90
8736;DHT22;4404;49.308;12.178;2023-09-12T18:51:18;24.20;99.90
8736;DHT22;4404;49.308;12.178;2023-09-12T18:53:21;24.10;99.90
8736;DHT22;4404;49.308;12.178;2023-09-12T18:55:24;24.10;99.90
8736;DHT22;4404;49.308;12.178;2023-09-12T18:57:26;24.10;99.90
8736;DHT22;4404;49.308;12.178;2023-09-12T18:59:29;24.00;99.90
8736;DHT22;4404;49.308;12.178;2023-09-12T19:01:32;24.00;99.90
8736;DHT22;4404;49.308;12.178;2023-09-12T19:03:34;23.90;99.90